Time;durP1;ratioP1;P1;durP2;ratioP2;P2;SDS_P1;SDS_P2;PMS_P1;PMS_P2;Temp;Humidity;BMP_temperature;BMP_pressure;BME280_temperature;BME280_humidity;BME280_pressure;Samples;Min_cycle;Max_cycle;Signal;HPM_P1;HPM_P2
2024/01/04 00:01:59;;;;;;;;;;;27.30;99.90;;;;;;5094787;28;19961;-67
2024/01/04 00:04:26;;;;;;;;;;;27.40;99.90;;;;;;5094831;28;20361;-71
2024/01/04 00:06:53;;;;;;;;;;;27.40;99.90;;;;;;5094647;28;19912;-65
2024/01/04 00:09:19;;;;;;;;;;;27.50;99.90;;;;;;5094902;28;19994;-68
2024/01/04 00:11:47;;;;;;;;;;;27.50;99.90;;;;;;5094666;28;19982;-71
2024/01/04 00:14:13;;;;;;;;;;;27.60;99.90;;;;;;5094470;28;19931;-71
2024/01/04 00:16:40;;;;;;;;;;;27.50;99.90;;;;;;5076478;28;19917;-67
2024/01/04 00:19:07;;;;;;;;;;;27.60;99.90;;;;;;5094539;28;19908;-70
2024/01/04 00:21:33;;;;;;;;;;;27.70;99.90;;;;;;5094281;28;19962;-74
2024/01/04 00:24:01;;;;;;;;;;;27.70;99.90;;;;;;5094559;28;19915;-67
2024/01/04 00:26:27;;;;;;;;;;;27.80;99.90;;;;;;5094322;28;20376;-72
2024/01/04 00:28:54;;;;;;;;;;;28.00;99.90;;;;;;5094107;28;20494;-68
2024/01/04 00:31:21;;;;;;;;;;;28.00;99.90;;;;;;5094195;28;19908;-73
2024/01/04 00:33:47;;;;;;;;;;;28.00;99.90;;;;;;5094157;28;19908;-69
2024/01/04 00:36:14;;;;;;;;;;;28.10;99.90;;;;;;5093819;28;19908;-66
2024/01/04 00:38:41;;;;;;;;;;;28.00;99.90;;;;;;5094166;28;20009;-65
2024/01/04 00:41:07;;;;;;;;;;;28.00;99.90;;;;;;5093839;28;19919;-69
2024/01/04 00:43:34;;;;;;;;;;;27.90;99.90;;;;;;5094016;28;19922;-66
2024/01/04 00:46:01;;;;;;;;;;;27.90;99.90;;;;;;5094200;28;20351;-68
2024/01/04 00:48:27;;;;;;;;;;;27.80;99.90;;;;;;5094208;28;19908;-68
2024/01/04 00:50:54;;;;;;;;;;;27.90;99.90;;;;;;5093913;28;20031;-69
2024/01/04 00:53:20;;;;;;;;;;;28.00;99.90;;;;;;5093862;28;19908;-72
2024/01/04 00:55:47;;;;;;;;;;;28.10;99.90;;;;;;5093629;28;20021;-67
2024/01/04 00:58:14;;;;;;;;;;;28.30;99.90;;;;;;5093795;28;19908;-68
2024/01/04 01:00:41;;;;;;;;;;;28.30;99.90;;;;;;5093646;28;19917;-67
2024/01/04 01:03:11;;;;;;;;;;;28.50;99.90;;;;;;5092669;28;20291;-67
2024/01/04 01:05:38;;;;;;;;;;;28.60;99.90;;;;;;5088315;28;19914;-67
2024/01/04 01:08:04;;;;;;;;;;;28.60;99.90;;;;;;5113106;28;20002;-67
2024/01/04 01:10:32;;;;;;;;;;;28.50;99.90;;;;;;5114054;28;20374;-66
2024/01/04 01:12:58;;;;;;;;;;;28.30;99.90;;;;;;5113907;28;20002;-68
2024/01/04 01:15:25;;;;;;;;;;;28.30;99.90;;;;;;5113537;28;19907;-64
2024/01/04 01:17:51;;;;;;;;;;;28.00;99.90;;;;;;5113689;28;19912;-67
2024/01/04 01:20:18;;;;;;;;;;;28.00;99.90;;;;;;5103267;28;19908;-66
2024/01/04 01:22:45;;;;;;;;;;;28.00;99.90;;;;;;5093376;28;20368;-67
2024/01/04 01:25:11;;;;;;;;;;;28.10;99.90;;;;;;5093406;28;20002;-69
2024/01/04 01:27:38;;;;;;;;;;;28.30;99.90;;;;;;5093414;28;20392;-67
2024/01/04 01:30:05;;;;;;;;;;;28.40;99.90;;;;;;5092933;28;19915;-66
2024/01/04 01:32:32;;;;;;;;;;;28.50;99.90;;;;;;5092967;28;19962;-68
2024/01/04 01:34:59;;;;;;;;;;;28.60;99.90;;;;;;5093129;28;19947;-67
2024/01/04 01:37:25;;;;;;;;;;;28.60;99.90;;;;;;5092979;28;19909;-67
2024/01/04 01:39:52;;;;;;;;;;;28.70;99.90;;;;;;5093329;28;19916;-68
2024/01/04 01:42:20;;;;;;;;;;;28.50;99.90;;;;;;5074943;28;20276;-67
2024/01/04 01:44:47;;;;;;;;;;;28.30;99.90;;;;;;5093067;28;19931;-66
2024/01/04 01:47:14;;;;;;;;;;;28.30;99.90;;;;;;5093371;28;19995;-67
2024/01/04 01:49:40;;;;;;;;;;;28.30;99.90;;;;;;5093032;28;19908;-68
2024/01/04 01:52:07;;;;;;;;;;;28.10;99.90;;;;;;5092605;28;19908;-65
2024/01/04 01:54:35;;;;;;;;;;;27.90;99.90;;;;;;5092469;28;19916;-65
2024/01/04 01:57:01;;;;;;;;;;;27.80;99.90;;;;;;5092772;28;19977;-65
2024/01/04 01:59:28;;;;;;;;;;;27.40;99.90;;;;;;5092904;28;19912;-67
2024/01/04 02:01:55;;;;;;;;;;;27.10;99.90;;;;;;5104831;28;20440;-66
2024/01/04 02:04:21;;;;;;;;;;;27.00;99.90;;;;;;5113254;28;19912;-66
2024/01/04 02:06:49;;;;;;;;;;;26.90;99.90;;;;;;5112906;28;19912;-66
2024/01/04 02:09:16;;;;;;;;;;;26.80;99.90;;;;;;5094910;28;19962;-66
2024/01/04 02:11:44;;;;;;;;;;;26.70;99.90;;;;;;5095127;28;19912;-68
2024/01/04 02:14:12;;;;;;;;;;;26.70;99.90;;;;;;5112962;28;19908;-65
2024/01/04 02:16:39;;;;;;;;;;;26.60;99.90;;;;;;5094898;28;19915;-66
2024/01/04 02:19:09;;;;;;;;;;;26.40;99.90;;;;;;5114203;28;19908;-67
2024/01/04 02:21:39;;;;;;;;;;;26.20;99.90;;;;;;5116852;28;19960;-66
2024/01/04 02:24:06;;;;;;;;;;;26.00;99.90;;;;;;5115972;28;19953;-67
2024/01/04 02:26:32;;;;;;;;;;;26.00;99.90;;;;;;5117327;28;19915;-67
2024/01/04 02:28:59;;;;;;;;;;;25.80;99.90;;;;;;5117178;28;20024;-65
2024/01/04 02:31:26;;;;;;;;;;;25.70;99.90;;;;;;5116727;28;20006;-69
2024/01/04 02:33:53;;;;;;;;;;;25.50;99.90;;;;;;5116825;28;19907;-67
2024/01/04 02:36:20;;;;;;;;;;;25.50;99.90;;;;;;5116756;28;20049;-63
2024/01/04 02:38:47;;;;;;;;;;;25.40;99.90;;;;;;5117018;28;19908;-67
2024/01/04 02:41:13;;;;;;;;;;;25.30;99.90;;;;;;5116859;28;20356;-69
2024/01/04 02:43:40;;;;;;;;;;;25.20;99.90;;;;;;5116723;28;20312;-68
2024/01/04 02:46:07;;;;;;;;;;;25.10;99.90;;;;;;5116766;28;19908;-67
2024/01/04 02:48:34;;;;;;;;;;;25.10;99.90;;;;;;5116884;28;20253;-68
2024/01/04 02:51:03;;;;;;;;;;;25.00;99.90;;;;;;5116169;28;19939;-66
2024/01/04 02:53:30;;;;;;;;;;;24.90;99.90;;;;;;5115605;28;19908;-67
2024/01/04 02:55:57;;;;;;;;;;;24.90;99.90;;;;;;5116431;28;20291;-67
2024/01/04 02:58:26;;;;;;;;;;;24.90;99.90;;;;;;5116693;28;20376;-68
2024/01/04 03:00:53;;;;;;;;;;;24.80;99.90;;;;;;5116469;28;20326;-68
2024/01/04 03:03:20;;;;;;;;;;;24.80;99.90;;;;;;5116323;28;19939;-65
2024/01/04 03:05:46;;;;;;;;;;;24.70;99.90;;;;;;5116310;28;19915;-66
2024/01/04 03:08:14;;;;;;;;;;;24.70;99.90;;;;;;5116269;28;20357;-67
2024/01/04 03:10:41;;;;;;;;;;;24.70;99.90;;;;;;5116157;28;19908;-67
2024/01/04 03:13:07;;;;;;;;;;;24.60;99.90;;;;;;5116102;28;19999;-68
2024/01/04 03:15:34;;;;;;;;;;;24.50;99.90;;;;;;5116049;28;19908;-66
2024/01/04 03:18:00;;;;;;;;;;;24.60;99.90;;;;;;5116152;28;19908;-68
2024/01/04 03:20:27;;;;;;;;;;;24.50;99.90;;;;;;5104774;28;19920;-68
2024/01/04 03:22:54;;;;;;;;;;;24.50;99.90;;;;;;5095682;28;19957;-68
2024/01/04 03:25:22;;;;;;;;;;;24.50;99.90;;;;;;5094577;28;19908;-68
2024/01/04 03:27:49;;;;;;;;;;;24.40;99.90;;;;;;5095382;28;19908;-70
2024/01/04 03:30:16;;;;;;;;;;;24.40;99.90;;;;;;5094732;28;19919;-68
2024/01/04 03:32:42;;;;;;;;;;;24.30;99.90;;;;;;5095203;28;19912;-67
2024/01/04 03:35:09;;;;;;;;;;;24.30;99.90;;;;;;5094977;28;19915;-69
2024/01/04 03:37:36;;;;;;;;;;;24.30;99.90;;;;;;5095362;28;20361;-71
2024/01/04 03:40:03;;;;;;;;;;;24.30;99.90;;;;;;5095235;28;19922;-70
2024/01/04 03:42:32;;;;;;;;;;;24.30;99.90;;;;;;5094929;28;19916;-67
2024/01/04 03:44:58;;;;;;;;;;;24.30;99.90;;;;;;5095057;28;19915;-71
2024/01/04 03:47:26;;;;;;;;;;;24.30;99.90;;;;;;5095214;28;19914;-72
2024/01/04 03:49:53;;;;;;;;;;;24.30;99.90;;;;;;5094656;28;20326;-67
2024/01/04 03:52:19;;;;;;;;;;;24.40;99.90;;;;;;5095141;28;19953;-67
2024/01/04 03:54:46;;;;;;;;;;;24.30;99.90;;;;;;5095174;28;19982;-69
2024/01/04 03:57:13;;;;;;;;;;;24.40;99.90;;;;;;5094808;28;20383;-66
2024/01/04 03:59:39;;;;;;;;;;;24.40;99.90;;;;;;5095027;28;19915;-68
2024/01/04 04:02:06;;;;;;;;;;;24.30;99.90;;;;;;5094709;28;19966;-73
2024/01/04 04:04:32;;;;;;;;;;;24.40;99.90;;;;;;5094870;28;19915;-69
2024/01/04 04:06:59;;;;;;;;;;;24.40;99.90;;;;;;5094652;28;19908;-71
2024/01/04 04:09:26;;;;;;;;;;;24.30;99.90;;;;;;5094730;28;20400;-66
2024/01/04 04:11:53;;;;;;;;;;;24.30;99.90;;;;;;5094505;28;19915;-65
2024/01/04 04:14:19;;;;;;;;;;;24.40;99.90;;;;;;5094828;28;19912;-71
2024/01/04 04:16:46;;;;;;;;;;;24.30;99.90;;;;;;5094541;28;19914;-70
2024/01/04 04:19:12;;;;;;;;;;;24.30;99.90;;;;;;5094611;28;20379;-71
2024/01/04 04:21:39;;;;;;;;;;;24.30;99.90;;;;;;5094208;28;19923;-65
2024/01/04 04:24:06;;;;;;;;;;;24.30;99.90;;;;;;5094551;28;20348;-68
2024/01/04 04:26:33;;;;;;;;;;;24.20;99.90;;;;;;5094262;28;20376;-66
2024/01/04 04:28:59;;;;;;;;;;;24.10;99.90;;;;;;5094390;28;19914;-66
2024/01/04 04:31:26;;;;;;;;;;;24.10;99.90;;;;;;5094100;28;20373;-66
2024/01/04 04:33:53;;;;;;;;;;;24.10;99.90;;;;;;5094155;28;20318;-65
2024/01/04 04:36:19;;;;;;;;;;;24.10;99.90;;;;;;5094281;28;19948;-65
2024/01/04 04:38:46;;;;;;;;;;;24.00;99.90;;;;;;5094338;28;19914;-66
2024/01/04 04:41:13;;;;;;;;;;;23.90;99.90;;;;;;5094115;28;20368;-66
2024/01/04 04:43:40;;;;;;;;;;;23.80;99.90;;;;;;5093964;28;19908;-66
2024/01/04 04:46:09;;;;;;;;;;;23.80;99.90;;;;;;5094047;28;19943;-73
2024/01/04 04:48:36;;;;;;;;;;;23.80;99.90;;;;;;5075901;28;20360;-68
2024/01/04 04:51:03;;;;;;;;;;;23.80;99.90;;;;;;5093908;28;20249;-66
2024/01/04 04:53:29;;;;;;;;;;;23.70;99.90;;;;;;5081449;28;19947;-71
2024/01/04 04:55:56;;;;;;;;;;;23.60;99.90;;;;;;5110797;28;20014;-66
2024/01/04 04:58:23;;;;;;;;;;;23.60;99.90;;;;;;5114271;28;19915;-64
2024/01/04 05:00:49;;;;;;;;;;;23.50;99.90;;;;;;5114121;28;19920;-67
2024/01/04 05:03:16;;;;;;;;;;;23.50;99.90;;;;;;5113862;28;19931;-66
2024/01/04 05:05:43;;;;;;;;;;;23.40;99.90;;;;;;5113682;28;19912;-66
2024/01/04 05:08:09;;;;;;;;;;;23.40;99.90;;;;;;5113924;28;20020;-65
2024/01/04 05:10:36;;;;;;;;;;;23.40;99.90;;;;;;5113662;28;19953;-64
2024/01/04 05:13:03;;;;;;;;;;;23.30;99.90;;;;;;5113730;28;19908;-65
2024/01/04 05:15:29;;;;;;;;;;;23.30;99.90;;;;;;5113632;28;19992;-66
2024/01/04 05:17:56;;;;;;;;;;;23.30;99.90;;;;;;5113764;28;19914;-68
2024/01/04 05:20:23;;;;;;;;;;;23.30;99.90;;;;;;5113700;28;20425;-67
2024/01/04 05:22:49;;;;;;;;;;;23.30;99.90;;;;;;5113587;28;20008;-67
2024/01/04 05:25:16;;;;;;;;;;;23.30;99.90;;;;;;5113635;28;19912;-69
2024/01/04 05:27:42;;;;;;;;;;;23.20;99.90;;;;;;5113840;28;19933;-66
2024/01/04 05:30:12;;;;;;;;;;;23.20;99.90;;;;;;5113640;28;19908;-66
2024/01/04 05:32:39;;;;;;;;;;;23.20;99.90;;;;;;5113550;28;19908;-66
2024/01/04 05:35:06;;;;;;;;;;;23.20;99.90;;;;;;5113350;28;20417;-66
2024/01/04 05:37:33;;;;;;;;;;;23.10;99.90;;;;;;5113348;28;19908;-65
2024/01/04 05:40:00;;;;;;;;;;;23.10;99.90;;;;;;5113206;28;19907;-66
2024/01/04 05:42:26;;;;;;;;;;;23.10;99.90;;;;;;5113061;28;19915;-66
2024/01/04 05:44:53;;;;;;;;;;;23.10;99.90;;;;;;5113475;28;19957;-70
2024/01/04 05:47:19;;;;;;;;;;;23.10;99.90;;;;;;5113261;28;19908;-69
2024/01/04 05:49:46;;;;;;;;;;;23.10;99.90;;;;;;5113111;28;19952;-68
2024/01/04 05:52:13;;;;;;;;;;;23.10;99.90;;;;;;5113009;28;19908;-67
2024/01/04 05:54:39;;;;;;;;;;;23.10;99.90;;;;;;5094405;28;19919;-68
2024/01/04 05:57:07;;;;;;;;;;;23.00;99.90;;;;;;5113310;28;20352;-67
2024/01/04 05:59:34;;;;;;;;;;;23.10;99.90;;;;;;5113034;28;19908;-65
2024/01/04 06:02:00;;;;;;;;;;;23.00;99.90;;;;;;5112906;28;19938;-66
2024/01/04 06:04:27;;;;;;;;;;;23.00;99.90;;;;;;5113297;28;19912;-65
2024/01/04 06:06:54;;;;;;;;;;;23.00;99.90;;;;;;5094953;28;19908;-65
2024/01/04 06:09:21;;;;;;;;;;;22.90;99.90;;;;;;5112871;28;19908;-65
2024/01/04 06:11:50;;;;;;;;;;;23.00;99.90;;;;;;5113049;28;20276;-67
2024/01/04 06:14:17;;;;;;;;;;;23.00;99.90;;;;;;5106898;28;19918;-67
2024/01/04 06:16:44;;;;;;;;;;;23.10;99.90;;;;;;5101005;28;19954;-65
2024/01/04 06:19:11;;;;;;;;;;;23.10;99.90;;;;;;5092430;28;19910;-65
2024/01/04 06:21:38;;;;;;;;;;;23.10;99.90;;;;;;5092248;28;19966;-65
2024/01/04 06:24:05;;;;;;;;;;;23.10;99.90;;;;;;5092566;28;19916;-66
2024/01/04 06:26:31;;;;;;;;;;;23.00;99.90;;;;;;5092278;28;20014;-66
2024/01/04 06:28:58;;;;;;;;;;;23.10;99.90;;;;;;5092253;28;19908;-66
2024/01/04 06:31:24;;;;;;;;;;;23.00;99.90;;;;;;5091890;28;19908;-66
2024/01/04 06:33:51;;;;;;;;;;;23.10;99.90;;;;;;5092285;28;19916;-66
2024/01/04 06:36:18;;;;;;;;;;;23.10;99.90;;;;;;5092295;28;19916;-66
2024/01/04 06:38:44;;;;;;;;;;;23.10;99.90;;;;;;5094201;28;19909;-65
2024/01/04 06:41:12;;;;;;;;;;;23.10;99.90;;;;;;5100868;28;19958;-65
2024/01/04 06:43:38;;;;;;;;;;;23.20;99.90;;;;;;5102598;28;19912;-65
2024/01/04 06:46:05;;;;;;;;;;;23.20;99.90;;;;;;5101688;28;19912;-67
2024/01/04 06:48:31;;;;;;;;;;;23.30;99.90;;;;;;5100808;28;19916;-67
2024/01/04 06:50:58;;;;;;;;;;;23.30;99.90;;;;;;5102897;28;20413;-65
2024/01/04 06:53:25;;;;;;;;;;;23.30;99.90;;;;;;5097849;28;19919;-67
2024/01/04 06:55:52;;;;;;;;;;;23.30;99.90;;;;;;5091871;28;19935;-68
2024/01/04 06:58:19;;;;;;;;;;;23.30;99.90;;;;;;5092291;28;19908;-65
2024/01/04 07:00:47;;;;;;;;;;;23.30;99.90;;;;;;5091940;28;19920;-67
2024/01/04 07:03:13;;;;;;;;;;;23.30;99.90;;;;;;5092008;28;19954;-69
2024/01/04 07:05:40;;;;;;;;;;;23.20;99.90;;;;;;5092376;28;19908;-71
2024/01/04 07:08:07;;;;;;;;;;;23.30;99.90;;;;;;5095632;28;20268;-67
2024/01/04 07:10:34;;;;;;;;;;;23.20;99.90;;;;;;5095586;28;19908;-68
2024/01/04 07:13:00;;;;;;;;;;;23.20;99.90;;;;;;5095689;28;19908;-65
2024/01/04 07:15:27;;;;;;;;;;;23.20;99.90;;;;;;5105120;28;19973;-67
2024/01/04 07:17:54;;;;;;;;;;;23.10;99.90;;;;;;5098023;28;19990;-67
2024/01/04 07:20:20;;;;;;;;;;;23.20;99.90;;;;;;5095295;28;19908;-68
2024/01/04 07:22:48;;;;;;;;;;;23.10;99.90;;;;;;5095308;28;19912;-65
2024/01/04 07:25:14;;;;;;;;;;;23.20;99.90;;;;;;5077252;28;19908;-66
2024/01/04 07:27:41;;;;;;;;;;;23.30;99.90;;;;;;5095289;28;20365;-69
2024/01/04 07:30:10;;;;;;;;;;;23.30;99.90;;;;;;5095481;28;19912;-69
2024/01/04 07:32:36;;;;;;;;;;;23.30;99.90;;;;;;5095127;28;20289;-66
2024/01/04 07:35:05;;;;;;;;;;;23.30;99.90;;;;;;5095456;28;19950;-71
2024/01/04 07:37:31;;;;;;;;;;;23.30;99.90;;;;;;5095135;28;20357;-67
2024/01/04 07:39:58;;;;;;;;;;;23.30;99.90;;;;;;5095341;28;19908;-71
2024/01/04 07:42:25;;;;;;;;;;;23.30;99.90;;;;;;5094921;28;19924;-72
2024/01/04 07:44:51;;;;;;;;;;;23.30;99.90;;;;;;5095013;28;20035;-70
2024/01/04 07:47:18;;;;;;;;;;;23.30;99.90;;;;;;5095171;28;19954;-69
2024/01/04 07:49:45;;;;;;;;;;;23.20;99.90;;;;;;5094978;28;19908;-69
2024/01/04 07:52:11;;;;;;;;;;;23.30;99.90;;;;;;5094853;28;19991;-73
2024/01/04 07:54:38;;;;;;;;;;;23.20;99.90;;;;;;5093307;28;20621;-71
2024/01/04 07:57:05;;;;;;;;;;;23.30;99.90;;;;;;5089924;28;19920;-71
2024/01/04 07:59:31;;;;;;;;;;;23.20;99.90;;;;;;5089631;28;19912;-71
2024/01/04 08:01:58;;;;;;;;;;;23.30;99.90;;;;;;5089064;28;19924;-70
2024/01/04 08:04:24;;;;;;;;;;;23.30;99.90;;;;;;5103057;28;20249;-72
2024/01/04 08:06:51;;;;;;;;;;;23.30;99.90;;;;;;5113575;28;19912;-72
2024/01/04 08:09:18;;;;;;;;;;;23.30;99.90;;;;;;5094602;28;19934;-71
2024/01/04 08:11:45;;;;;;;;;;;23.30;99.90;;;;;;5094539;28;20430;-66
2024/01/04 08:14:12;;;;;;;;;;;23.40;99.90;;;;;;5094550;28;19954;-64
2024/01/04 08:16:39;;;;;;;;;;;23.30;99.90;;;;;;5094127;28;19915;-66
2024/01/04 08:19:06;;;;;;;;;;;23.30;99.90;;;;;;5094477;28;19912;-66
2024/01/04 08:21:32;;;;;;;;;;;23.30;99.90;;;;;;5095344;28;20023;-65
2024/01/04 08:23:59;;;;;;;;;;;23.30;99.90;;;;;;5094537;28;19912;-69
2024/01/04 08:26:27;;;;;;;;;;;23.30;99.90;;;;;;5094501;28;20371;-66
2024/01/04 08:28:53;;;;;;;;;;;23.20;99.90;;;;;;5094144;28;19932;-64
2024/01/04 08:31:20;;;;;;;;;;;23.20;99.90;;;;;;5094143;28;19954;-66
2024/01/04 08:33:47;;;;;;;;;;;23.20;99.90;;;;;;5093933;28;20406;-65
2024/01/04 08:36:14;;;;;;;;;;;23.20;99.90;;;;;;5109536;28;19912;-71
2024/01/04 08:38:40;;;;;;;;;;;23.20;99.90;;;;;;5094033;28;19913;-68
2024/01/04 08:41:07;;;;;;;;;;;23.20;99.90;;;;;;5094261;28;19916;-65
2024/01/04 08:43:33;;;;;;;;;;;23.10;99.90;;;;;;5094086;28;19951;-70
2024/01/04 08:46:01;;;;;;;;;;;23.10;99.90;;;;;;5094065;28;20015;-69
2024/01/04 08:48:27;;;;;;;;;;;23.10;99.90;;;;;;5097163;28;20399;-67
2024/01/04 08:50:54;;;;;;;;;;;23.10;99.90;;;;;;5101221;28;19908;-66
2024/01/04 08:53:21;;;;;;;;;;;23.00;99.90;;;;;;5093822;28;20368;-70
2024/01/04 08:55:50;;;;;;;;;;;23.10;99.90;;;;;;5093731;28;19920;-66
2024/01/04 08:58:17;;;;;;;;;;;23.00;99.90;;;;;;5093572;28;19908;-70
2024/01/04 09:00:44;;;;;;;;;;;23.00;99.90;;;;;;5093668;28;19912;-68
2024/01/04 09:03:10;;;;;;;;;;;22.90;99.90;;;;;;5093629;28;19912;-67
2024/01/04 09:05:37;;;;;;;;;;;23.00;99.90;;;;;;5093606;28;19908;-72
2024/01/04 09:08:05;;;;;;;;;;;23.00;99.90;;;;;;5093565;28;19947;-65
2024/01/04 09:10:31;;;;;;;;;;;22.90;99.90;;;;;;5093430;28;19958;-66
2024/01/04 09:12:58;;;;;;;;;;;22.90;99.90;;;;;;5093401;28;19998;-67
2024/01/04 09:15:25;;;;;;;;;;;22.90;99.90;;;;;;5093162;28;19908;-65
2024/01/04 09:17:51;;;;;;;;;;;22.90;99.90;;;;;;5094426;28;19918;-66
2024/01/04 09:20:18;;;;;;;;;;;22.90;99.90;;;;;;5102209;28;20057;-70
2024/01/04 09:22:45;;;;;;;;;;;22.80;99.90;;;;;;5102078;28;19999;-64
2024/01/04 09:25:11;;;;;;;;;;;22.90;99.90;;;;;;5093482;28;19908;-65
2024/01/04 09:27:38;;;;;;;;;;;22.80;99.90;;;;;;5093337;28;19908;-66
2024/01/04 09:30:05;;;;;;;;;;;22.80;99.90;;;;;;5092353;28;19908;-67
2024/01/04 09:32:31;;;;;;;;;;;22.70;99.90;;;;;;5092918;28;19914;-67
2024/01/04 09:34:58;;;;;;;;;;;22.60;99.90;;;;;;5092956;28;19965;-68
2024/01/04 09:37:24;;;;;;;;;;;22.60;99.90;;;;;;5093028;28;19915;-68
2024/01/04 09:39:51;;;;;;;;;;;22.60;99.90;;;;;;5093455;28;20361;-67
2024/01/04 09:42:23;;;;;;;;;;;22.60;99.90;;;;;;5092640;28;19916;-66
2024/01/04 09:44:54;;;;;;;;;;;22.60;99.90;;;;;;5092705;28;20287;-67
2024/01/04 09:47:22;;;;;;;;;;;22.60;99.90;;;;;;5092766;28;19912;-64
2024/01/04 09:49:50;;;;;;;;;;;22.60;99.90;;;;;;5093232;28;19908;-66
2024/01/04 09:52:17;;;;;;;;;;;22.60;99.90;;;;;;5092779;28;19908;-65
2024/01/04 09:54:45;;;;;;;;;;;22.50;99.90;;;;;;5093177;28;19920;-68
2024/01/04 09:57:11;;;;;;;;;;;22.50;99.90;;;;;;5112438;28;19950;-67
2024/01/04 09:59:38;;;;;;;;;;;22.50;99.90;;;;;;5112993;28;19908;-67
2024/01/04 10:02:06;;;;;;;;;;;22.50;99.90;;;;;;5107414;28;19920;-66
2024/01/04 10:04:34;;;;;;;;;;;22.50;99.90;;;;;;5096569;28;19922;-65
2024/01/04 10:07:02;;;;;;;;;;;22.50;99.90;;;;;;5113004;28;19911;-65
2024/01/04 10:09:35;;;;;;;;;;;22.50;99.90;;;;;;5113066;28;19908;-67
2024/01/04 10:12:05;;;;;;;;;;;22.40;99.90;;;;;;5113047;28;20064;-66
2024/01/04 10:14:32;;;;;;;;;;;22.40;99.90;;;;;;5113164;28;19908;-67
2024/01/04 10:16:59;;;;;;;;;;;22.40;99.90;;;;;;5113187;28;20372;-70
2024/01/04 10:19:26;;;;;;;;;;;22.40;99.90;;;;;;5102718;28;20315;-66
2024/01/04 10:21:53;;;;;;;;;;;22.50;99.90;;;;;;5092524;28;20004;-65
2024/01/04 10:24:23;;;;;;;;;;;22.50;99.90;;;;;;5092778;28;20365;-64
2024/01/04 10:26:57;;;;;;;;;;;22.40;99.90;;;;;;5092720;28;19914;-65
2024/01/04 10:29:27;;;;;;;;;;;22.40;99.90;;;;;;5092840;28;19943;-66
2024/01/04 10:32:17;;;;;;;;;;;22.40;99.90;;;;;;5092526;28;19908;-67
2024/01/04 10:34:44;;;;;;;;;;;22.40;99.90;;;;;;5091966;28;19912;-72
2024/01/04 10:37:15;;;;;;;;;;;22.40;99.90;;;;;;5092466;28;19966;-63
2024/01/04 10:39:45;;;;;;;;;;;22.30;99.90;;;;;;5093159;28;19912;-66
2024/01/04 10:42:13;;;;;;;;;;;22.30;99.90;;;;;;5099433;28;20002;-65
2024/01/04 10:44:39;;;;;;;;;;;22.30;99.90;;;;;;5115731;28;20429;-65
2024/01/04 10:47:09;;;;;;;;;;;22.30;99.90;;;;;;5102890;28;19947;-64
2024/01/04 10:49:39;;;;;;;;;;;22.20;99.90;;;;;;5095844;28;19908;-69
2024/01/04 10:52:09;;;;;;;;;;;22.20;99.90;;;;;;5096308;28;19908;-67
2024/01/04 10:54:35;;;;;;;;;;;22.30;99.90;;;;;;5095938;28;19916;-65
2024/01/04 10:57:03;;;;;;;;;;;22.30;99.90;;;;;;5096430;28;19981;-67
2024/01/04 10:59:31;;;;;;;;;;;22.20;99.90;;;;;;5096014;28;19997;-68
2024/01/04 11:01:58;;;;;;;;;;;22.30;99.90;;;;;;5095963;28;19978;-65
2024/01/04 11:04:25;;;;;;;;;;;22.30;99.90;;;;;;5095863;28;19908;-67
2024/01/04 11:06:52;;;;;;;;;;;22.40;99.90;;;;;;5095773;28;19905;-69
2024/01/04 11:09:23;;;;;;;;;;;22.40;99.90;;;;;;5095656;28;20377;-70
2024/01/04 11:11:51;;;;;;;;;;;22.40;99.90;;;;;;5099232;28;19994;-69
2024/01/04 11:14:22;;;;;;;;;;;22.40;99.90;;;;;;5116620;28;19907;-67
2024/01/04 11:16:51;;;;;;;;;;;22.30;99.90;;;;;;5116520;28;19915;-65
2024/01/04 11:19:27;;;;;;;;;;;22.30;99.90;;;;;;5116396;28;19999;-71
2024/01/04 11:22:06;;;;;;;;;;;22.30;99.90;;;;;;5116087;28;20394;-70
2024/01/04 11:24:51;;;;;;;;;;;22.40;99.90;;;;;;5113579;28;19916;-72
2024/01/04 11:27:17;;;;;;;;;;;22.40;99.90;;;;;;5112411;28;20262;-67
2024/01/04 11:29:45;;;;;;;;;;;22.40;99.90;;;;;;5095426;28;19961;-72
2024/01/04 11:32:11;;;;;;;;;;;22.50;99.90;;;;;;5095485;28;20308;-71
2024/01/04 11:34:41;;;;;;;;;;;22.50;99.90;;;;;;5095898;28;19950;-65
2024/01/04 11:37:09;;;;;;;;;;;22.50;99.90;;;;;;5100973;28;19909;-72
2024/01/04 11:39:50;;;;;;;;;;;22.50;99.90;;;;;;5099151;28;19914;-72
2024/01/04 11:42:18;;;;;;;;;;;22.40;99.90;;;;;;5116119;28;20420;-69
2024/01/04 11:44:49;;;;;;;;;;;22.40;99.90;;;;;;5106514;28;19908;-74
2024/01/04 11:47:28;;;;;;;;;;;22.30;99.90;;;;;;5099323;28;19947;-69
2024/01/04 11:50:00;;;;;;;;;;;22.30;99.90;;;;;;5111929;28;19918;-69
2024/01/04 11:52:28;;;;;;;;;;;22.30;99.90;;;;;;5114802;28;20280;-70
2024/01/04 11:54:55;;;;;;;;;;;22.20;99.90;;;;;;5115084;28;19952;-71
2024/01/04 11:57:24;;;;;;;;;;;22.20;99.90;;;;;;5115488;28;20272;-71
2024/01/04 11:59:51;;;;;;;;;;;22.20;99.90;;;;;;5115504;28;19908;-67
2024/01/04 12:02:19;;;;;;;;;;;22.10;99.90;;;;;;5105324;28;20392;-73
2024/01/04 12:04:46;;;;;;;;;;;22.10;99.90;;;;;;5100983;28;20287;-69
2024/01/04 12:07:13;;;;;;;;;;;22.00;99.90;;;;;;5114704;28;19919;-67
2024/01/04 12:09:43;;;;;;;;;;;22.00;99.90;;;;;;5114813;28;20356;-65
2024/01/04 12:12:09;;;;;;;;;;;22.00;99.90;;;;;;5103791;28;19909;-71
2024/01/04 12:14:37;;;;;;;;;;;22.00;99.90;;;;;;5094673;28;19908;-69
2024/01/04 12:17:04;;;;;;;;;;;22.00;99.90;;;;;;5094509;28;19908;-70
2024/01/04 12:19:31;;;;;;;;;;;22.00;99.90;;;;;;5094522;28;20378;-68
2024/01/04 12:21:58;;;;;;;;;;;22.00;99.90;;;;;;5094398;28;19916;-65
2024/01/04 12:24:25;;;;;;;;;;;21.90;99.90;;;;;;5094603;28;19915;-65
2024/01/04 12:26:52;;;;;;;;;;;21.90;99.90;;;;;;5094500;28;19949;-69
2024/01/04 12:29:19;;;;;;;;;;;21.90;99.90;;;;;;5094522;28;19958;-66
2024/01/04 12:31:45;;;;;;;;;;;21.90;99.90;;;;;;5094101;28;19934;-66
2024/01/04 12:34:12;;;;;;;;;;;21.90;99.90;;;;;;5101079;28;19908;-63
2024/01/04 12:36:39;;;;;;;;;;;22.00;99.90;;;;;;5100798;28;20378;-66
2024/01/04 12:39:07;;;;;;;;;;;22.00;99.90;;;;;;5094078;28;19916;-66
2024/01/04 12:41:33;;;;;;;;;;;22.10;99.90;;;;;;5093646;28;19923;-71
2024/01/04 12:44:00;;;;;;;;;;;22.10;99.90;;;;;;5093947;28;20276;-68
2024/01/04 12:46:30;;;;;;;;;;;22.20;99.90;;;;;;5093814;28;20345;-71
2024/01/04 12:49:07;;;;;;;;;;;22.10;99.90;;;;;;5094003;28;19908;-71
2024/01/04 12:51:38;;;;;;;;;;;22.10;99.90;;;;;;5093942;28;19908;-69
2024/01/04 12:54:05;;;;;;;;;;;22.10;99.90;;;;;;5093634;28;19912;-73
2024/01/04 12:56:34;;;;;;;;;;;22.10;99.90;;;;;;5094066;28;19919;-67
2024/01/04 12:59:03;;;;;;;;;;;22.10;99.90;;;;;;5093723;28;19917;-68
2024/01/04 13:01:29;;;;;;;;;;;22.00;99.90;;;;;;5093528;28;19942;-69
2024/01/04 13:03:59;;;;;;;;;;;22.00;99.90;;;;;;5092662;28;19912;-70
2024/01/04 13:06:29;;;;;;;;;;;21.90;99.90;;;;;;5093930;28;20389;-70
2024/01/04 13:08:56;;;;;;;;;;;21.90;99.90;;;;;;5093569;28;19908;-72
2024/01/04 13:11:23;;;;;;;;;;;21.90;99.90;;;;;;5093330;28;20395;-70
2024/01/04 13:13:50;;;;;;;;;;;21.90;99.90;;;;;;5093377;28;19977;-71
2024/01/04 13:16:17;;;;;;;;;;;21.90;99.90;;;;;;5097158;28;20018;-73
2024/01/04 13:18:43;;;;;;;;;;;21.90;99.90;;;;;;5113017;28;19907;-68
2024/01/04 13:21:10;;;;;;;;;;;21.90;99.90;;;;;;5113652;28;19912;-71
2024/01/04 13:23:37;;;;;;;;;;;21.80;99.90;;;;;;5113758;28;19919;-69
2024/01/04 13:26:03;;;;;;;;;;;21.90;99.90;;;;;;5113850;28;20395;-66
2024/01/04 13:28:30;;;;;;;;;;;21.80;99.90;;;;;;5109281;28;19912;-70
2024/01/04 13:30:57;;;;;;;;;;;21.90;99.90;;;;;;5101695;28;19908;-73
2024/01/04 13:33:26;;;;;;;;;;;21.90;99.90;;;;;;5093198;28;19923;-75
2024/01/04 13:35:55;;;;;;;;;;;22.00;99.90;;;;;;5092949;28;19908;-67
2024/01/04 13:38:22;;;;;;;;;;;22.00;99.90;;;;;;5075101;28;19908;-66
2024/01/04 13:40:48;;;;;;;;;;;22.00;99.90;;;;;;5093224;28;19908;-72
2024/01/04 13:43:15;;;;;;;;;;;22.10;99.90;;;;;;5093218;28;20409;-72
2024/01/04 13:45:41;;;;;;;;;;;22.00;99.90;;;;;;5096994;28;19922;-73
2024/01/04 13:48:08;;;;;;;;;;;22.00;99.90;;;;;;5093499;28;19908;-70
2024/01/04 13:50:35;;;;;;;;;;;22.00;99.90;;;;;;5093157;28;19909;-70
2024/01/04 13:53:04;;;;;;;;;;;22.00;99.90;;;;;;5092807;28;19908;-73
2024/01/04 13:55:30;;;;;;;;;;;21.90;99.90;;;;;;5092882;28;19920;-66
2024/01/04 13:57:57;;;;;;;;;;;22.00;99.90;;;;;;5092964;28;20365;-71
2024/01/04 14:00:25;;;;;;;;;;;22.00;99.90;;;;;;5104701;28;19915;-70
2024/01/04 14:02:51;;;;;;;;;;;22.00;99.90;;;;;;5112519;28;19946;-65
2024/01/04 14:05:18;;;;;;;;;;;21.90;99.90;;;;;;5104922;28;19958;-73
2024/01/04 14:07:45;;;;;;;;;;;21.90;99.90;;;;;;5092846;28;19908;-70
2024/01/04 14:10:11;;;;;;;;;;;21.90;99.90;;;;;;5092635;28;19912;-71
2024/01/04 14:12:38;;;;;;;;;;;22.00;99.90;;;;;;5092495;28;19914;-74
2024/01/04 14:15:06;;;;;;;;;;;22.00;99.90;;;;;;5092331;28;19908;-73
2024/01/04 14:17:33;;;;;;;;;;;22.00;99.90;;;;;;5103627;28;19944;-70